sensor_id;sensor_type;location;lat;lon;timestamp;P1;P2;P0
47709;PMS7003;33473;51.640;5.892;2023-03-24T00:01:52;0.6;3.82;2.73
47709;PMS7003;33473;51.640;5.892;2023-03-24T00:15:12;1.92;4.04;2.95
47709;PMS7003;33473;51.640;5.892;2023-03-24T00:28:31;1.32;4.48;3.06
47709;PMS7003;33473;51.640;5.892;2023-03-24T00:41:51;1.2;4.37;2.84
47709;PMS7003;33473;51.640;5.892;2023-03-24T00:55:11;1.56;3.93;2.73
47709;PMS7003;33473;51.640;5.892;2023-03-24T01:08:30;0.96;4.04;2.95
47709;PMS7003;33473;51.640;5.892;2023-03-24T01:21:50;0.96;3.93;2.95
47709;PMS7003;33473;51.640;5.892;2023-03-24T01:35:10;0.72;3.93;3.17
47709;PMS7003;33473;51.640;5.892;2023-03-24T01:48:30;0.72;3.82;2.84
47709;PMS7003;33473;51.640;5.892;2023-03-24T02:01:49;0.84;3.82;2.62
47709;PMS7003;33473;51.640;5.892;2023-03-24T02:15:09;1.08;3.93;2.95
47709;PMS7003;33473;51.640;5.892;2023-03-24T02:28:29;1.32;4.37;3.17
47709;PMS7003;33473;51.640;5.892;2023-03-24T02:41:48;1.56;4.48;3.17
47709;PMS7003;33473;51.640;5.892;2023-03-24T02:55:08;1.92;4.91;3.61
47709;PMS7003;33473;51.640;5.892;2023-03-24T03:08:28;2.28;4.7;3.61
47709;PMS7003;33473;51.640;5.892;2023-03-24T03:21:47;1.92;4.8;3.71
47709;PMS7003;33473;51.640;5.892;2023-03-24T03:35:07;2.88;5.13;3.61
47709;PMS7003;33473;51.640;5.892;2023-03-24T03:48:27;0.01;2.3;1.54
47709;PMS7003;33473;51.640;5.892;2023-03-24T04:01:46;0.01;1.32;
47709;PMS7003;33473;51.640;5.892;2023-03-24T04:15:06;0.01;1.54;1.21
47709;PMS7003;33473;51.640;5.892;2023-03-24T04:28:26;0.0;2.52;1.75
47709;PMS7003;33473;51.640;5.892;2023-03-24T04:41:45;2.28;4.59;3.17
47709;PMS7003;33473;51.640;5.892;2023-03-24T04:55:05;3.36;5.24;3.39
47709;PMS7003;33473;51.640;5.892;2023-03-24T05:08:25;1.56;4.15;2.84
47709;PMS7003;33473;51.640;5.892;2023-03-24T05:21:44;0.6;3.17;1.97
47709;PMS7003;33473;51.640;5.892;2023-03-24T05:35:04;0.72;2.52;1.43
47709;PMS7003;33473;51.640;5.892;2023-03-24T05:48:24;1.08;3.93;2.84
47709;PMS7003;33473;51.640;5.892;2023-03-24T06:01:43;4.21;4.91;3.39
47709;PMS7003;33473;51.640;5.892;2023-03-24T06:15:03;2.64;4.15;2.73
47709;PMS7003;33473;51.640;5.892;2023-03-24T06:28:23;1.08;3.39;2.41
47709;PMS7003;33473;51.640;5.892;2023-03-24T06:41:42;1.08;2.84;1.64
47709;PMS7003;33473;51.640;5.892;2023-03-24T06:55:02;0.01;2.08;1.21
47709;PMS7003;33473;51.640;5.892;2023-03-24T07:08:22;0.01;1.86;1.21
47709;PMS7003;33473;51.640;5.892;2023-03-24T07:21:41;0.01;2.3;1.32
47709;PMS7003;33473;51.640;5.892;2023-03-24T07:35:01;0.0;2.41;1.32
47709;PMS7003;33473;51.640;5.892;2023-03-24T07:48:21;0.01;2.08;1.21
47709;PMS7003;33473;51.640;5.892;2023-03-24T08:01:40;1.2;1.86;
47709;PMS7003;33473;51.640;5.892;2023-03-24T08:15:00;0.01;2.52;1.32
47709;PMS7003;33473;51.640;5.892;2023-03-24T08:28:20;0.0;2.41;1.32
47709;PMS7003;33473;51.640;5.892;2023-03-24T08:41:39;0.12;2.52;1.32
47709;PMS7003;33473;51.640;5.892;2023-03-24T08:54:59;9.25;2.62;1.32
47709;PMS7003;33473;51.640;5.892;2023-03-24T09:08:19;2.52;2.41;1.54
47709;PMS7003;33473;51.640;5.892;2023-03-24T09:21:39;0.01;2.41;1.32
47709;PMS7003;33473;51.640;5.892;2023-03-24T09:34:58;0.01;2.08;1.43
47709;PMS7003;33473;51.640;5.892;2023-03-24T09:48:18;0.72;2.52;1.54
47709;PMS7003;33473;51.640;5.892;2023-03-24T10:01:38;0.01;2.52;1.32
47709;PMS7003;33473;51.640;5.892;2023-03-24T10:14:57;3.6;2.84;1.75
47709;PMS7003;33473;51.640;5.892;2023-03-24T10:28:17;0.01;2.62;1.97
47709;PMS7003;33473;51.640;5.892;2023-03-24T10:41:37;1.08;3.06;1.97
47709;PMS7003;33473;51.640;5.892;2023-03-24T10:54:56;0.01;2.52;1.64
47709;PMS7003;33473;51.640;5.892;2023-03-24T11:08:16;0.01;2.41;1.32
47709;PMS7003;33473;51.640;5.892;2023-03-24T11:21:36;0.01;2.19;1.43
47709;PMS7003;33473;51.640;5.892;2023-03-24T11:34:55;0.01;2.08;1.32
47709;PMS7003;33473;51.640;5.892;2023-03-24T11:48:15;0.01;2.08;1.54
47709;PMS7003;33473;51.640;5.892;2023-03-24T12:01:35;0.01;1.97;1.32
47709;PMS7003;33473;51.640;5.892;2023-03-24T12:14:54;0.12;1.75;1.21
47709;PMS7003;33473;51.640;5.892;2023-03-24T12:28:14;0.72;2.3;1.21
47709;PMS7003;33473;51.640;5.892;2023-03-24T12:41:34;;;
47709;PMS7003;33473;51.640;5.892;2023-03-24T12:54:53;0.01;1.86;1.43
47709;PMS7003;33473;51.640;5.892;2023-03-24T13:08:13;;;
47709;PMS7003;33473;51.640;5.892;2023-03-24T13:21:33;0.01;1.21;
47709;PMS7003;33473;51.640;5.892;2023-03-24T13:34:53;0.01;1.54;1.32
47709;PMS7003;33473;51.640;5.892;2023-03-24T13:48:12;0.01;1.32;
47709;PMS7003;33473;51.640;5.892;2023-03-24T14:01:32;0.01;1.21;1.21
47709;PMS7003;33473;51.640;5.892;2023-03-24T14:14:52;0.01;1.97;1.43
47709;PMS7003;33473;51.640;5.892;2023-03-24T14:28:11;0.01;2.19;1.43
47709;PMS7003;33473;51.640;5.892;2023-03-24T14:41:31;0.01;1.54;1.21
47709;PMS7003;33473;51.640;5.892;2023-03-24T14:54:51;0.01;1.21;
47709;PMS7003;33473;51.640;5.892;2023-03-24T15:08:10;0.01;1.64;1.21
47709;PMS7003;33473;51.640;5.892;2023-03-24T15:21:30;0.01;1.97;1.54
47709;PMS7003;33473;51.640;5.892;2023-03-24T15:34:50;0.96;2.62;1.86
47709;PMS7003;33473;51.640;5.892;2023-03-24T15:48:09;0.01;1.97;1.32
47709;PMS7003;33473;51.640;5.892;2023-03-24T16:01:29;0.01;2.08;1.32
47709;PMS7003;33473;51.640;5.892;2023-03-24T16:14:49;0.01;1.75;1.21
47709;PMS7003;33473;51.640;5.892;2023-03-24T16:28:08;0.01;1.86;1.21
47709;PMS7003;33473;51.640;5.892;2023-03-24T16:41:28;0.01;1.64;1.21
47709;PMS7003;33473;51.640;5.892;2023-03-24T16:54:48;0.01;1.21;
47709;PMS7003;33473;51.640;5.892;2023-03-24T17:08:07;0.01;1.43;
47709;PMS7003;33473;51.640;5.892;2023-03-24T17:21:27;0.01;1.43;
47709;PMS7003;33473;51.640;5.892;2023-03-24T17:34:47;0.01;1.43;1.21
47709;PMS7003;33473;51.640;5.892;2023-03-24T17:48:06;0.01;1.97;1.32
47709;PMS7003;33473;51.640;5.892;2023-03-24T18:01:26;1.92;4.04;2.73
47709;PMS7003;33473;51.640;5.892;2023-03-24T18:14:46;0.96;3.71;2.3
47709;PMS7003;33473;51.640;5.892;2023-03-24T18:28:05;0.12;2.62;1.75
47709;PMS7003;33473;51.640;5.892;2023-03-24T18:41:25;0.01;2.3;1.54
47709;PMS7003;33473;51.640;5.892;2023-03-24T18:54:45;0.01;1.86;1.32
47709;PMS7003;33473;51.640;5.892;2023-03-24T19:08:04;0.01;1.64;1.21
47709;PMS7003;33473;51.640;5.892;2023-03-24T19:21:24;0.01;1.86;1.32
47709;PMS7003;33473;51.640;5.892;2023-03-24T19:34:44;0.01;1.86;1.32
47709;PMS7003;33473;51.640;5.892;2023-03-24T19:48:03;0.01;2.19;1.21
47709;PMS7003;33473;51.640;5.892;2023-03-24T20:01:23;0.01;2.08;1.64
47709;PMS7003;33473;51.640;5.892;2023-03-24T20:14:43;0.01;2.95;2.08
47709;PMS7003;33473;51.640;5.892;2023-03-24T20:28:02;0.01;1.64;1.21
47709;PMS7003;33473;51.640;5.892;2023-03-24T20:41:22;0.01;1.75;1.21
47709;PMS7003;33473;51.640;5.892;2023-03-24T20:54:42;0.01;1.64;1.21
47709;PMS7003;33473;51.640;5.892;2023-03-24T21:08:01;0.01;1.86;
47709;PMS7003;33473;51.640;5.892;2023-03-24T21:21:21;0.01;1.75;1.32
47709;PMS7003;33473;51.640;5.892;2023-03-24T21:34:41;0.01;1.75;1.21
47709;PMS7003;33473;51.640;5.892;2023-03-24T21:48:00;0.01;2.08;1.32
47709;PMS7003;33473;51.640;5.892;2023-03-24T22:01:20;0.01;1.75;1.32
47709;PMS7003;33473;51.640;5.892;2023-03-24T22:14:40;0.01;2.19;1.64
47709;PMS7003;33473;51.640;5.892;2023-03-24T22:28:02;0.01;2.19;1.43
47709;PMS7003;33473;51.640;5.892;2023-03-24T22:41:22;0.01;1.64;1.21
47709;PMS7003;33473;51.640;5.892;2023-03-24T22:54:41;0.01;1.64;
47709;PMS7003;33473;51.640;5.892;2023-03-24T23:08:01;0.01;1.97;1.43
47709;PMS7003;33473;51.640;5.892;2023-03-24T23:21:21;0.12;2.3;1.43
47709;PMS7003;33473;51.640;5.892;2023-03-24T23:34:40;0.01;1.97;1.32
47709;PMS7003;33473;51.640;5.892;2023-03-24T23:48:00;0.01;1.75;1.43
